sensor_id;sensor_type;location;lat;lon;timestamp;P1;durP1;ratioP1;P2;durP2;ratioP2
6651;SDS011;3362;50.892;10.692;2023-05-16T00:00:58;6.30;;;3.58;;
6651;SDS011;3362;50.892;10.692;2023-05-16T00:03:25;9.73;;;4.53;;
6651;SDS011;3362;50.892;10.692;2023-05-16T00:05:51;5.13;;;3.97;;
6651;SDS011;3362;50.892;10.692;2023-05-16T00:08:18;6.47;;;4.03;;
6651;SDS011;3362;50.892;10.692;2023-05-16T00:10:44;4.78;;;3.55;;
6651;SDS011;3362;50.892;10.692;2023-05-16T00:13:10;10.48;;;4.63;;
6651;SDS011;3362;50.892;10.692;2023-05-16T00:15:38;4.82;;;3.58;;
6651;SDS011;3362;50.892;10.692;2023-05-16T00:18:05;6.45;;;3.83;;
6651;SDS011;3362;50.892;10.692;2023-05-16T00:20:31;4.95;;;3.67;;
6651;SDS011;3362;50.892;10.692;2023-05-16T00:22:58;4.53;;;3.55;;
6651;SDS011;3362;50.892;10.692;2023-05-16T00:25:25;5.45;;;3.75;;
6651;SDS011;3362;50.892;10.692;2023-05-16T00:27:51;5.65;;;4.20;;
6651;SDS011;3362;50.892;10.692;2023-05-16T00:30:17;9.77;;;3.70;;
6651;SDS011;3362;50.892;10.692;2023-05-16T00:32:45;5.32;;;4.07;;
6651;SDS011;3362;50.892;10.692;2023-05-16T00:35:11;5.30;;;4.30;;
6651;SDS011;3362;50.892;10.692;2023-05-16T00:37:37;6.32;;;4.72;;
6651;SDS011;3362;50.892;10.692;2023-05-16T00:40:03;7.13;;;4.47;;
6651;SDS011;3362;50.892;10.692;2023-05-16T00:42:30;6.13;;;4.45;;
6651;SDS011;3362;50.892;10.692;2023-05-16T00:44:56;8.05;;;4.85;;
6651;SDS011;3362;50.892;10.692;2023-05-16T00:47:22;7.07;;;4.80;;
6651;SDS011;3362;50.892;10.692;2023-05-16T00:49:50;11.95;;;5.40;;
6651;SDS011;3362;50.892;10.692;2023-05-16T00:52:16;7.45;;;5.00;;
6651;SDS011;3362;50.892;10.692;2023-05-16T00:54:43;8.00;;;4.97;;
6651;SDS011;3362;50.892;10.692;2023-05-16T00:57:09;6.50;;;5.15;;
6651;SDS011;3362;50.892;10.692;2023-05-16T00:59:35;9.55;;;5.38;;
6651;SDS011;3362;50.892;10.692;2023-05-16T01:02:02;10.88;;;5.43;;
6651;SDS011;3362;50.892;10.692;2023-05-16T01:04:28;6.25;;;5.07;;
6651;SDS011;3362;50.892;10.692;2023-05-16T01:06:55;7.90;;;5.70;;
6651;SDS011;3362;50.892;10.692;2023-05-16T01:09:22;9.50;;;5.70;;
6651;SDS011;3362;50.892;10.692;2023-05-16T01:11:49;8.88;;;5.70;;
6651;SDS011;3362;50.892;10.692;2023-05-16T01:14:19;9.32;;;5.97;;
6651;SDS011;3362;50.892;10.692;2023-05-16T01:16:48;9.25;;;5.90;;
6651;SDS011;3362;50.892;10.692;2023-05-16T01:19:19;10.35;;;6.07;;
6651;SDS011;3362;50.892;10.692;2023-05-16T01:21:53;10.10;;;5.82;;
6651;SDS011;3362;50.892;10.692;2023-05-16T01:24:26;10.32;;;6.22;;
6651;SDS011;3362;50.892;10.692;2023-05-16T01:26:59;9.63;;;6.20;;
6651;SDS011;3362;50.892;10.692;2023-05-16T01:29:25;10.15;;;6.22;;
6651;SDS011;3362;50.892;10.692;2023-05-16T01:31:51;13.75;;;7.47;;
6651;SDS011;3362;50.892;10.692;2023-05-16T01:34:18;9.38;;;6.18;;
6651;SDS011;3362;50.892;10.692;2023-05-16T01:36:47;10.20;;;6.30;;
6651;SDS011;3362;50.892;10.692;2023-05-16T01:39:19;8.55;;;5.78;;
6651;SDS011;3362;50.892;10.692;2023-05-16T01:41:46;7.82;;;5.80;;
6651;SDS011;3362;50.892;10.692;2023-05-16T01:44:19;11.93;;;6.95;;
6651;SDS011;3362;50.892;10.692;2023-05-16T01:46:46;7.32;;;5.95;;
6651;SDS011;3362;50.892;10.692;2023-05-16T01:49:14;9.50;;;6.85;;
6651;SDS011;3362;50.892;10.692;2023-05-16T01:51:41;11.07;;;7.28;;
6651;SDS011;3362;50.892;10.692;2023-05-16T01:54:11;11.57;;;7.78;;
6651;SDS011;3362;50.892;10.692;2023-05-16T01:56:37;10.05;;;7.22;;
6651;SDS011;3362;50.892;10.692;2023-05-16T01:59:04;13.90;;;8.07;;
6651;SDS011;3362;50.892;10.692;2023-05-16T02:01:32;9.30;;;6.90;;
6651;SDS011;3362;50.892;10.692;2023-05-16T02:03:58;12.80;;;7.47;;
6651;SDS011;3362;50.892;10.692;2023-05-16T02:06:24;13.32;;;7.95;;
6651;SDS011;3362;50.892;10.692;2023-05-16T02:08:51;12.73;;;7.57;;
6651;SDS011;3362;50.892;10.692;2023-05-16T02:11:17;12.25;;;7.97;;
6651;SDS011;3362;50.892;10.692;2023-05-16T02:13:43;11.43;;;8.23;;
6651;SDS011;3362;50.892;10.692;2023-05-16T02:16:10;12.63;;;7.45;;
6651;SDS011;3362;50.892;10.692;2023-05-16T02:18:37;12.93;;;8.30;;
6651;SDS011;3362;50.892;10.692;2023-05-16T02:21:04;14.30;;;8.27;;
6651;SDS011;3362;50.892;10.692;2023-05-16T02:23:31;15.40;;;8.25;;
6651;SDS011;3362;50.892;10.692;2023-05-16T02:25:57;15.23;;;8.75;;
6651;SDS011;3362;50.892;10.692;2023-05-16T02:28:23;14.32;;;9.65;;
6651;SDS011;3362;50.892;10.692;2023-05-16T02:30:54;13.93;;;8.75;;
6651;SDS011;3362;50.892;10.692;2023-05-16T02:33:21;15.07;;;9.75;;
6651;SDS011;3362;50.892;10.692;2023-05-16T02:35:48;15.32;;;9.20;;
6651;SDS011;3362;50.892;10.692;2023-05-16T02:38:14;13.00;;;8.68;;
6651;SDS011;3362;50.892;10.692;2023-05-16T02:40:41;12.07;;;8.70;;
6651;SDS011;3362;50.892;10.692;2023-05-16T02:43:07;18.48;;;9.63;;
6651;SDS011;3362;50.892;10.692;2023-05-16T02:45:34;14.68;;;9.90;;
6651;SDS011;3362;50.892;10.692;2023-05-16T02:48:00;13.57;;;9.02;;
6651;SDS011;3362;50.892;10.692;2023-05-16T02:50:26;17.90;;;9.82;;
6651;SDS011;3362;50.892;10.692;2023-05-16T02:52:54;14.68;;;7.57;;
6651;SDS011;3362;50.892;10.692;2023-05-16T02:55:20;14.18;;;9.57;;
6651;SDS011;3362;50.892;10.692;2023-05-16T02:57:46;14.10;;;9.40;;
6651;SDS011;3362;50.892;10.692;2023-05-16T03:00:13;12.52;;;9.02;;
6651;SDS011;3362;50.892;10.692;2023-05-16T03:02:39;15.20;;;9.73;;
6651;SDS011;3362;50.892;10.692;2023-05-16T03:05:05;14.57;;;8.85;;
6651;SDS011;3362;50.892;10.692;2023-05-16T03:07:32;12.20;;;8.63;;
6651;SDS011;3362;50.892;10.692;2023-05-16T03:09:59;15.25;;;9.00;;
6651;SDS011;3362;50.892;10.692;2023-05-16T03:12:26;12.50;;;8.50;;
6651;SDS011;3362;50.892;10.692;2023-05-16T03:14:52;15.77;;;9.30;;
6651;SDS011;3362;50.892;10.692;2023-05-16T03:17:18;18.60;;;9.70;;
6651;SDS011;3362;50.892;10.692;2023-05-16T03:19:44;11.55;;;8.43;;
6651;SDS011;3362;50.892;10.692;2023-05-16T03:22:10;12.50;;;8.43;;
6651;SDS011;3362;50.892;10.692;2023-05-16T03:24:37;15.10;;;9.25;;
6651;SDS011;3362;50.892;10.692;2023-05-16T03:27:04;17.10;;;9.48;;
6651;SDS011;3362;50.892;10.692;2023-05-16T03:29:31;14.65;;;8.77;;
6651;SDS011;3362;50.892;10.692;2023-05-16T03:31:57;15.10;;;9.40;;
6651;SDS011;3362;50.892;10.692;2023-05-16T03:34:24;15.18;;;8.93;;
6651;SDS011;3362;50.892;10.692;2023-05-16T03:36:50;16.13;;;9.52;;
6651;SDS011;3362;50.892;10.692;2023-05-16T03:39:16;15.70;;;9.07;;
6651;SDS011;3362;50.892;10.692;2023-05-16T03:41:42;12.93;;;8.32;;
6651;SDS011;3362;50.892;10.692;2023-05-16T03:44:10;16.30;;;8.05;;
6651;SDS011;3362;50.892;10.692;2023-05-16T03:46:36;14.70;;;9.32;;
6651;SDS011;3362;50.892;10.692;2023-05-16T03:49:02;15.10;;;9.30;;
6651;SDS011;3362;50.892;10.692;2023-05-16T03:51:29;19.45;;;8.95;;
6651;SDS011;3362;50.892;10.692;2023-05-16T03:53:55;15.02;;;8.27;;
6651;SDS011;3362;50.892;10.692;2023-05-16T03:56:22;15.35;;;8.65;;
6651;SDS011;3362;50.892;10.692;2023-05-16T03:58:48;19.30;;;9.07;;
6651;SDS011;3362;50.892;10.692;2023-05-16T04:01:15;14.10;;;8.75;;
6651;SDS011;3362;50.892;10.692;2023-05-16T04:03:41;11.68;;;8.32;;
6651;SDS011;3362;50.892;10.692;2023-05-16T04:06:08;12.30;;;8.40;;
6651;SDS011;3362;50.892;10.692;2023-05-16T04:08:34;14.32;;;8.52;;
6651;SDS011;3362;50.892;10.692;2023-05-16T04:11:00;12.68;;;7.78;;
6651;SDS011;3362;50.892;10.692;2023-05-16T04:13:27;11.75;;;7.43;;
6651;SDS011;3362;50.892;10.692;2023-05-16T04:15:53;11.13;;;7.63;;
6651;SDS011;3362;50.892;10.692;2023-05-16T04:18:20;15.75;;;8.95;;
6651;SDS011;3362;50.892;10.692;2023-05-16T04:20:47;15.60;;;8.77;;
6651;SDS011;3362;50.892;10.692;2023-05-16T04:23:13;15.13;;;9.02;;
6651;SDS011;3362;50.892;10.692;2023-05-16T04:25:40;11.45;;;7.55;;
6651;SDS011;3362;50.892;10.692;2023-05-16T04:28:06;11.40;;;7.50;;
6651;SDS011;3362;50.892;10.692;2023-05-16T04:30:33;19.77;;;8.70;;
6651;SDS011;3362;50.892;10.692;2023-05-16T04:32:59;12.15;;;7.20;;
6651;SDS011;3362;50.892;10.692;2023-05-16T04:35:27;14.43;;;8.38;;
6651;SDS011;3362;50.892;10.692;2023-05-16T04:37:53;12.30;;;8.15;;
6651;SDS011;3362;50.892;10.692;2023-05-16T04:40:19;12.90;;;8.57;;
6651;SDS011;3362;50.892;10.692;2023-05-16T04:42:46;17.00;;;8.85;;
6651;SDS011;3362;50.892;10.692;2023-05-16T04:45:12;12.25;;;8.10;;
6651;SDS011;3362;50.892;10.692;2023-05-16T04:47:39;13.57;;;8.43;;
6651;SDS011;3362;50.892;10.692;2023-05-16T04:50:06;11.57;;;7.75;;
6651;SDS011;3362;50.892;10.692;2023-05-16T04:52:35;16.20;;;8.15;;
6651;SDS011;3362;50.892;10.692;2023-05-16T04:55:02;12.38;;;8.85;;
6651;SDS011;3362;50.892;10.692;2023-05-16T04:57:28;10.93;;;7.53;;
6651;SDS011;3362;50.892;10.692;2023-05-16T04:59:54;11.15;;;8.10;;
6651;SDS011;3362;50.892;10.692;2023-05-16T05:02:20;15.98;;;9.07;;
6651;SDS011;3362;50.892;10.692;2023-05-16T05:04:47;17.00;;;8.35;;
6651;SDS011;3362;50.892;10.692;2023-05-16T05:07:13;17.13;;;9.02;;
6651;SDS011;3362;50.892;10.692;2023-05-16T05:09:41;12.18;;;6.97;;
6651;SDS011;3362;50.892;10.692;2023-05-16T05:12:08;11.93;;;7.68;;
6651;SDS011;3362;50.892;10.692;2023-05-16T05:14:34;13.05;;;8.27;;
6651;SDS011;3362;50.892;10.692;2023-05-16T05:17:00;13.15;;;7.53;;
6651;SDS011;3362;50.892;10.692;2023-05-16T05:19:26;15.85;;;8.35;;
6651;SDS011;3362;50.892;10.692;2023-05-16T05:21:52;16.42;;;8.07;;
6651;SDS011;3362;50.892;10.692;2023-05-16T05:24:19;11.95;;;7.60;;
6651;SDS011;3362;50.892;10.692;2023-05-16T05:26:46;12.27;;;7.47;;
6651;SDS011;3362;50.892;10.692;2023-05-16T05:29:12;12.65;;;7.63;;
6651;SDS011;3362;50.892;10.692;2023-05-16T05:31:38;11.88;;;7.00;;
6651;SDS011;3362;50.892;10.692;2023-05-16T05:34:05;13.60;;;7.45;;
6651;SDS011;3362;50.892;10.692;2023-05-16T05:36:31;13.55;;;8.18;;
6651;SDS011;3362;50.892;10.692;2023-05-16T05:38:57;11.45;;;6.78;;
6651;SDS011;3362;50.892;10.692;2023-05-16T05:41:23;10.27;;;6.47;;
6651;SDS011;3362;50.892;10.692;2023-05-16T05:43:51;13.77;;;6.97;;
6651;SDS011;3362;50.892;10.692;2023-05-16T05:46:17;9.60;;;6.10;;
6651;SDS011;3362;50.892;10.692;2023-05-16T05:48:44;9.93;;;6.15;;
6651;SDS011;3362;50.892;10.692;2023-05-16T05:51:10;9.13;;;5.32;;
6651;SDS011;3362;50.892;10.692;2023-05-16T05:53:38;9.35;;;5.65;;
6651;SDS011;3362;50.892;10.692;2023-05-16T05:56:04;10.25;;;5.32;;
6651;SDS011;3362;50.892;10.692;2023-05-16T05:58:31;10.18;;;5.40;;
6651;SDS011;3362;50.892;10.692;2023-05-16T06:00:58;6.80;;;4.53;;
6651;SDS011;3362;50.892;10.692;2023-05-16T06:03:24;12.60;;;5.30;;
6651;SDS011;3362;50.892;10.692;2023-05-16T06:05:50;15.80;;;5.93;;
6651;SDS011;3362;50.892;10.692;2023-05-16T06:08:17;8.15;;;4.93;;
6651;SDS011;3362;50.892;10.692;2023-05-16T06:10:43;8.18;;;5.20;;
6651;SDS011;3362;50.892;10.692;2023-05-16T06:13:09;20.42;;;5.40;;
6651;SDS011;3362;50.892;10.692;2023-05-16T06:15:35;9.43;;;5.22;;
6651;SDS011;3362;50.892;10.692;2023-05-16T06:18:03;9.20;;;5.82;;
6651;SDS011;3362;50.892;10.692;2023-05-16T06:20:29;7.03;;;4.40;;
6651;SDS011;3362;50.892;10.692;2023-05-16T06:22:55;6.22;;;3.28;;
6651;SDS011;3362;50.892;10.692;2023-05-16T06:25:21;9.23;;;3.28;;
6651;SDS011;3362;50.892;10.692;2023-05-16T06:27:48;12.82;;;3.55;;
6651;SDS011;3362;50.892;10.692;2023-05-16T06:30:14;4.75;;;2.85;;
6651;SDS011;3362;50.892;10.692;2023-05-16T06:32:40;5.55;;;2.78;;
6651;SDS011;3362;50.892;10.692;2023-05-16T06:35:08;6.93;;;2.58;;
6651;SDS011;3362;50.892;10.692;2023-05-16T06:37:34;2.10;;;1.88;;
6651;SDS011;3362;50.892;10.692;2023-05-16T06:40:01;3.58;;;2.50;;
6651;SDS011;3362;50.892;10.692;2023-05-16T06:42:27;5.22;;;2.30;;
6651;SDS011;3362;50.892;10.692;2023-05-16T06:44:53;4.72;;;2.03;;
6651;SDS011;3362;50.892;10.692;2023-05-16T06:47:19;4.55;;;2.50;;
6651;SDS011;3362;50.892;10.692;2023-05-16T06:49:46;4.30;;;2.72;;
6651;SDS011;3362;50.892;10.692;2023-05-16T06:52:13;5.22;;;2.10;;
6651;SDS011;3362;50.892;10.692;2023-05-16T06:54:40;5.40;;;2.33;;
6651;SDS011;3362;50.892;10.692;2023-05-16T06:57:06;3.33;;;1.85;;
6651;SDS011;3362;50.892;10.692;2023-05-16T06:59:33;6.28;;;2.95;;
6651;SDS011;3362;50.892;10.692;2023-05-16T07:01:59;3.80;;;1.83;;
6651;SDS011;3362;50.892;10.692;2023-05-16T07:04:26;4.20;;;2.15;;
6651;SDS011;3362;50.892;10.692;2023-05-16T07:06:52;2.83;;;2.15;;
6651;SDS011;3362;50.892;10.692;2023-05-16T07:09:19;3.85;;;1.80;;
6651;SDS011;3362;50.892;10.692;2023-05-16T07:11:46;1.23;;;1.13;;
6651;SDS011;3362;50.892;10.692;2023-05-16T07:14:12;2.55;;;1.63;;
6651;SDS011;3362;50.892;10.692;2023-05-16T07:16:38;2.00;;;1.23;;
6651;SDS011;3362;50.892;10.692;2023-05-16T07:19:04;1.50;;;1.35;;
6651;SDS011;3362;50.892;10.692;2023-05-16T07:21:30;1.30;;;1.17;;
6651;SDS011;3362;50.892;10.692;2023-05-16T07:23:57;2.65;;;1.33;;
6651;SDS011;3362;50.892;10.692;2023-05-16T07:26:24;2.47;;;1.60;;
6651;SDS011;3362;50.892;10.692;2023-05-16T07:28:51;3.13;;;1.90;;
6651;SDS011;3362;50.892;10.692;2023-05-16T07:31:17;3.42;;;2.20;;
6651;SDS011;3362;50.892;10.692;2023-05-16T07:33:44;3.85;;;2.63;;
6651;SDS011;3362;50.892;10.692;2023-05-16T07:36:10;2.17;;;1.77;;
6651;SDS011;3362;50.892;10.692;2023-05-16T07:38:37;3.90;;;1.90;;
6651;SDS011;3362;50.892;10.692;2023-05-16T07:41:03;2.35;;;1.52;;
6651;SDS011;3362;50.892;10.692;2023-05-16T07:43:31;2.15;;;1.40;;
6651;SDS011;3362;50.892;10.692;2023-05-16T07:45:59;1.88;;;1.45;;
6651;SDS011;3362;50.892;10.692;2023-05-16T07:48:25;1.85;;;1.52;;
6651;SDS011;3362;50.892;10.692;2023-05-16T07:50:51;2.20;;;1.65;;
6651;SDS011;3362;50.892;10.692;2023-05-16T07:53:17;3.50;;;1.10;;
6651;SDS011;3362;50.892;10.692;2023-05-16T07:55:44;2.38;;;1.50;;
6651;SDS011;3362;50.892;10.692;2023-05-16T07:58:10;1.48;;;1.08;;
6651;SDS011;3362;50.892;10.692;2023-05-16T08:00:38;3.03;;;1.75;;
6651;SDS011;3362;50.892;10.692;2023-05-16T08:03:04;2.13;;;1.52;;
6651;SDS011;3362;50.892;10.692;2023-05-16T08:05:30;1.30;;;1.00;;
6651;SDS011;3362;50.892;10.692;2023-05-16T08:07:56;2.15;;;1.20;;
6651;SDS011;3362;50.892;10.692;2023-05-16T08:10:23;1.83;;;0.93;;
6651;SDS011;3362;50.892;10.692;2023-05-16T08:12:49;2.90;;;1.10;;
6651;SDS011;3362;50.892;10.692;2023-05-16T08:15:17;2.67;;;1.00;;
6651;SDS011;3362;50.892;10.692;2023-05-16T08:17:44;2.47;;;1.20;;
6651;SDS011;3362;50.892;10.692;2023-05-16T08:20:11;2.78;;;1.35;;
6651;SDS011;3362;50.892;10.692;2023-05-16T08:22:37;2.70;;;1.70;;
6651;SDS011;3362;50.892;10.692;2023-05-16T08:25:04;0.70;;;0.70;;
6651;SDS011;3362;50.892;10.692;2023-05-16T08:27:31;1.05;;;0.90;;
6651;SDS011;3362;50.892;10.692;2023-05-16T08:29:57;2.78;;;1.13;;
6651;SDS011;3362;50.892;10.692;2023-05-16T08:32:23;1.50;;;0.90;;
6651;SDS011;3362;50.892;10.692;2023-05-16T08:34:50;2.08;;;1.40;;
6651;SDS011;3362;50.892;10.692;2023-05-16T08:37:17;3.85;;;1.15;;
6651;SDS011;3362;50.892;10.692;2023-05-16T08:39:43;0.98;;;0.88;;
6651;SDS011;3362;50.892;10.692;2023-05-16T08:42:10;2.72;;;1.38;;
6651;SDS011;3362;50.892;10.692;2023-05-16T08:44:36;1.55;;;0.80;;
6651;SDS011;3362;50.892;10.692;2023-05-16T08:47:04;0.70;;;0.70;;
6651;SDS011;3362;50.892;10.692;2023-05-16T08:49:32;2.25;;;1.10;;
6651;SDS011;3362;50.892;10.692;2023-05-16T08:52:00;1.52;;;0.70;;
6651;SDS011;3362;50.892;10.692;2023-05-16T08:54:27;1.20;;;0.60;;
6651;SDS011;3362;50.892;10.692;2023-05-16T08:56:54;1.05;;;0.82;;
6651;SDS011;3362;50.892;10.692;2023-05-16T08:59:21;3.22;;;1.83;;
6651;SDS011;3362;50.892;10.692;2023-05-16T09:01:47;0.90;;;0.73;;
6651;SDS011;3362;50.892;10.692;2023-05-16T09:04:14;1.08;;;0.82;;
6651;SDS011;3362;50.892;10.692;2023-05-16T09:06:40;4.47;;;0.90;;
6651;SDS011;3362;50.892;10.692;2023-05-16T09:09:08;7.70;;;1.67;;
6651;SDS011;3362;50.892;10.692;2023-05-16T09:11:36;2.33;;;0.88;;
6651;SDS011;3362;50.892;10.692;2023-05-16T09:14:03;1.30;;;0.88;;
6651;SDS011;3362;50.892;10.692;2023-05-16T09:16:29;2.00;;;0.80;;
6651;SDS011;3362;50.892;10.692;2023-05-16T09:18:56;1.17;;;0.70;;
6651;SDS011;3362;50.892;10.692;2023-05-16T09:21:25;12.98;;;1.50;;
6651;SDS011;3362;50.892;10.692;2023-05-16T09:23:52;54.35;;;2.75;;
6651;SDS011;3362;50.892;10.692;2023-05-16T09:26:19;2.70;;;0.68;;
6651;SDS011;3362;50.892;10.692;2023-05-16T09:28:46;1.60;;;0.43;;
6651;SDS011;3362;50.892;10.692;2023-05-16T09:31:19;2.15;;;0.93;;
6651;SDS011;3362;50.892;10.692;2023-05-16T09:33:45;1.38;;;0.80;;
6651;SDS011;3362;50.892;10.692;2023-05-16T09:36:14;1.30;;;1.05;;
6651;SDS011;3362;50.892;10.692;2023-05-16T09:38:40;4.25;;;1.33;;
6651;SDS011;3362;50.892;10.692;2023-05-16T09:41:07;3.95;;;1.20;;
6651;SDS011;3362;50.892;10.692;2023-05-16T09:43:36;1.98;;;1.15;;
6651;SDS011;3362;50.892;10.692;2023-05-16T09:46:03;1.77;;;1.08;;
6651;SDS011;3362;50.892;10.692;2023-05-16T09:48:29;5.40;;;1.35;;
6651;SDS011;3362;50.892;10.692;2023-05-16T09:50:56;1.10;;;0.90;;
6651;SDS011;3362;50.892;10.692;2023-05-16T09:53:28;3.75;;;1.30;;
6651;SDS011;3362;50.892;10.692;2023-05-16T09:56:01;4.80;;;1.60;;
6651;SDS011;3362;50.892;10.692;2023-05-16T09:58:28;3.92;;;1.50;;
6651;SDS011;3362;50.892;10.692;2023-05-16T10:00:55;6.18;;;1.35;;
6651;SDS011;3362;50.892;10.692;2023-05-16T10:03:22;2.58;;;1.05;;
6651;SDS011;3362;50.892;10.692;2023-05-16T10:05:48;3.53;;;1.30;;
6651;SDS011;3362;50.892;10.692;2023-05-16T10:08:14;6.60;;;1.50;;
6651;SDS011;3362;50.892;10.692;2023-05-16T10:10:41;4.45;;;1.48;;
6651;SDS011;3362;50.892;10.692;2023-05-16T10:13:07;6.50;;;1.60;;
6651;SDS011;3362;50.892;10.692;2023-05-16T10:15:35;3.65;;;1.50;;
6651;SDS011;3362;50.892;10.692;2023-05-16T10:18:03;6.03;;;1.90;;
6651;SDS011;3362;50.892;10.692;2023-05-16T10:20:32;3.85;;;1.75;;
6651;SDS011;3362;50.892;10.692;2023-05-16T10:22:58;10.13;;;1.80;;
6651;SDS011;3362;50.892;10.692;2023-05-16T10:25:27;4.03;;;1.60;;
6651;SDS011;3362;50.892;10.692;2023-05-16T10:27:53;3.55;;;1.35;;
6651;SDS011;3362;50.892;10.692;2023-05-16T10:30:20;4.07;;;1.70;;
6651;SDS011;3362;50.892;10.692;2023-05-16T10:32:47;4.72;;;1.50;;
6651;SDS011;3362;50.892;10.692;2023-05-16T10:35:16;6.47;;;1.63;;
6651;SDS011;3362;50.892;10.692;2023-05-16T10:37:42;6.35;;;1.63;;
6651;SDS011;3362;50.892;10.692;2023-05-16T10:40:09;3.13;;;1.33;;
6651;SDS011;3362;50.892;10.692;2023-05-16T10:42:36;6.25;;;1.30;;
6651;SDS011;3362;50.892;10.692;2023-05-16T10:45:08;7.88;;;1.40;;
6651;SDS011;3362;50.892;10.692;2023-05-16T10:47:34;2.58;;;1.20;;
6651;SDS011;3362;50.892;10.692;2023-05-16T10:50:00;6.07;;;1.33;;
6651;SDS011;3362;50.892;10.692;2023-05-16T10:52:33;4.82;;;1.38;;
6651;SDS011;3362;50.892;10.692;2023-05-16T10:55:01;3.92;;;1.48;;
6651;SDS011;3362;50.892;10.692;2023-05-16T10:57:27;6.95;;;1.55;;
6651;SDS011;3362;50.892;10.692;2023-05-16T10:59:53;4.88;;;1.40;;
6651;SDS011;3362;50.892;10.692;2023-05-16T11:02:23;9.10;;;1.20;;
6651;SDS011;3362;50.892;10.692;2023-05-16T11:04:50;5.53;;;1.30;;
6651;SDS011;3362;50.892;10.692;2023-05-16T11:07:17;5.47;;;1.48;;
6651;SDS011;3362;50.892;10.692;2023-05-16T11:09:45;1.55;;;0.90;;
6651;SDS011;3362;50.892;10.692;2023-05-16T11:12:19;6.07;;;1.15;;
6651;SDS011;3362;50.892;10.692;2023-05-16T11:14:46;14.85;;;2.00;;
6651;SDS011;3362;50.892;10.692;2023-05-16T11:17:19;3.13;;;1.20;;
6651;SDS011;3362;50.892;10.692;2023-05-16T11:19:46;4.65;;;0.93;;
6651;SDS011;3362;50.892;10.692;2023-05-16T11:22:23;3.47;;;1.15;;
6651;SDS011;3362;50.892;10.692;2023-05-16T11:24:52;8.52;;;1.30;;
6651;SDS011;3362;50.892;10.692;2023-05-16T11:27:21;5.75;;;0.95;;
6651;SDS011;3362;50.892;10.692;2023-05-16T11:29:48;0.77;;;0.75;;
6651;SDS011;3362;50.892;10.692;2023-05-16T11:32:17;2.90;;;1.00;;
6651;SDS011;3362;50.892;10.692;2023-05-16T11:34:43;4.97;;;1.38;;
6651;SDS011;3362;50.892;10.692;2023-05-16T11:37:12;2.88;;;0.80;;
6651;SDS011;3362;50.892;10.692;2023-05-16T11:39:39;3.38;;;1.15;;
6651;SDS011;3362;50.892;10.692;2023-05-16T11:42:06;3.72;;;0.95;;
6651;SDS011;3362;50.892;10.692;2023-05-16T11:44:33;8.40;;;0.80;;
6651;SDS011;3362;50.892;10.692;2023-05-16T11:46:59;4.50;;;1.15;;
6651;SDS011;3362;50.892;10.692;2023-05-16T11:49:26;6.95;;;1.27;;
6651;SDS011;3362;50.892;10.692;2023-05-16T11:51:52;3.38;;;0.73;;
6651;SDS011;3362;50.892;10.692;2023-05-16T11:54:20;2.58;;;0.80;;
6651;SDS011;3362;50.892;10.692;2023-05-16T11:56:48;4.55;;;0.90;;
6651;SDS011;3362;50.892;10.692;2023-05-16T11:59:16;3.05;;;0.93;;
6651;SDS011;3362;50.892;10.692;2023-05-16T12:01:42;3.60;;;0.90;;
6651;SDS011;3362;50.892;10.692;2023-05-16T12:04:08;5.95;;;0.90;;
6651;SDS011;3362;50.892;10.692;2023-05-16T12:06:35;2.42;;;0.65;;
6651;SDS011;3362;50.892;10.692;2023-05-16T12:09:02;3.22;;;0.95;;
6651;SDS011;3362;50.892;10.692;2023-05-16T12:11:34;1.02;;;0.77;;
6651;SDS011;3362;50.892;10.692;2023-05-16T12:14:01;3.10;;;0.60;;
6651;SDS011;3362;50.892;10.692;2023-05-16T12:16:29;3.35;;;0.47;;
6651;SDS011;3362;50.892;10.692;2023-05-16T12:18:55;5.15;;;0.57;;
6651;SDS011;3362;50.892;10.692;2023-05-16T12:21:22;2.38;;;0.65;;
6651;SDS011;3362;50.892;10.692;2023-05-16T12:23:48;2.85;;;0.85;;
6651;SDS011;3362;50.892;10.692;2023-05-16T12:26:15;3.42;;;0.75;;
6651;SDS011;3362;50.892;10.692;2023-05-16T12:28:51;15.48;;;1.25;;
6651;SDS011;3362;50.892;10.692;2023-05-16T12:31:20;1.65;;;0.57;;
6651;SDS011;3362;50.892;10.692;2023-05-16T12:33:47;10.00;;;1.10;;
6651;SDS011;3362;50.892;10.692;2023-05-16T12:36:17;2.03;;;0.90;;
6651;SDS011;3362;50.892;10.692;2023-05-16T12:38:44;2.25;;;0.50;;
6651;SDS011;3362;50.892;10.692;2023-05-16T12:41:11;1.48;;;0.73;;
6651;SDS011;3362;50.892;10.692;2023-05-16T12:43:42;9.27;;;1.08;;
6651;SDS011;3362;50.892;10.692;2023-05-16T12:46:09;10.88;;;0.90;;
6651;SDS011;3362;50.892;10.692;2023-05-16T12:48:36;2.60;;;0.88;;
6651;SDS011;3362;50.892;10.692;2023-05-16T12:51:11;6.20;;;0.98;;
6651;SDS011;3362;50.892;10.692;2023-05-16T12:53:42;4.13;;;0.70;;
6651;SDS011;3362;50.892;10.692;2023-05-16T12:56:09;1.70;;;0.85;;
6651;SDS011;3362;50.892;10.692;2023-05-16T12:58:35;1.75;;;0.80;;
6651;SDS011;3362;50.892;10.692;2023-05-16T13:01:02;3.50;;;0.77;;
6651;SDS011;3362;50.892;10.692;2023-05-16T13:03:28;5.45;;;0.93;;
6651;SDS011;3362;50.892;10.692;2023-05-16T13:05:55;2.47;;;0.70;;
6651;SDS011;3362;50.892;10.692;2023-05-16T13:08:23;5.35;;;0.63;;
6651;SDS011;3362;50.892;10.692;2023-05-16T13:10:49;6.13;;;0.55;;
6651;SDS011;3362;50.892;10.692;2023-05-16T13:13:15;4.63;;;0.90;;
6651;SDS011;3362;50.892;10.692;2023-05-16T13:15:42;3.75;;;0.57;;
6651;SDS011;3362;50.892;10.692;2023-05-16T13:18:09;5.25;;;0.70;;
6651;SDS011;3362;50.892;10.692;2023-05-16T13:20:35;4.82;;;1.23;;
6651;SDS011;3362;50.892;10.692;2023-05-16T13:23:02;4.47;;;0.68;;
6651;SDS011;3362;50.892;10.692;2023-05-16T13:25:30;3.05;;;0.60;;
6651;SDS011;3362;50.892;10.692;2023-05-16T13:27:56;4.95;;;0.57;;
6651;SDS011;3362;50.892;10.692;2023-05-16T13:30:23;11.18;;;0.82;;
6651;SDS011;3362;50.892;10.692;2023-05-16T13:32:49;2.45;;;0.70;;
6651;SDS011;3362;50.892;10.692;2023-05-16T13:35:16;1.60;;;0.65;;
6651;SDS011;3362;50.892;10.692;2023-05-16T13:37:42;1.35;;;0.60;;
6651;SDS011;3362;50.892;10.692;2023-05-16T13:40:08;3.58;;;0.63;;
6651;SDS011;3362;50.892;10.692;2023-05-16T13:42:36;1.27;;;0.60;;
6651;SDS011;3362;50.892;10.692;2023-05-16T13:45:03;3.58;;;0.85;;
6651;SDS011;3362;50.892;10.692;2023-05-16T13:47:29;4.18;;;0.98;;
6651;SDS011;3362;50.892;10.692;2023-05-16T13:49:56;6.18;;;0.80;;
6651;SDS011;3362;50.892;10.692;2023-05-16T13:52:23;1.60;;;0.68;;
6651;SDS011;3362;50.892;10.692;2023-05-16T13:54:49;2.70;;;0.98;;
6651;SDS011;3362;50.892;10.692;2023-05-16T13:57:15;3.80;;;1.08;;
6651;SDS011;3362;50.892;10.692;2023-05-16T13:59:43;2.90;;;0.82;;
6651;SDS011;3362;50.892;10.692;2023-05-16T14:02:09;1.55;;;0.73;;
6651;SDS011;3362;50.892;10.692;2023-05-16T14:04:35;5.65;;;0.57;;
6651;SDS011;3362;50.892;10.692;2023-05-16T14:07:02;9.50;;;1.10;;
6651;SDS011;3362;50.892;10.692;2023-05-16T14:09:28;4.72;;;0.80;;
6651;SDS011;3362;50.892;10.692;2023-05-16T14:11:54;2.13;;;0.88;;
6651;SDS011;3362;50.892;10.692;2023-05-16T14:14:20;4.95;;;0.73;;
6651;SDS011;3362;50.892;10.692;2023-05-16T14:16:48;5.18;;;0.60;;
6651;SDS011;3362;50.892;10.692;2023-05-16T14:19:14;3.60;;;0.52;;
6651;SDS011;3362;50.892;10.692;2023-05-16T14:21:40;7.03;;;0.70;;
6651;SDS011;3362;50.892;10.692;2023-05-16T14:24:07;4.72;;;0.85;;
6651;SDS011;3362;50.892;10.692;2023-05-16T14:26:33;1.73;;;0.70;;
6651;SDS011;3362;50.892;10.692;2023-05-16T14:28:59;2.75;;;0.52;;
6651;SDS011;3362;50.892;10.692;2023-05-16T14:31:25;6.60;;;1.15;;
6651;SDS011;3362;50.892;10.692;2023-05-16T14:33:53;1.30;;;0.63;;
6651;SDS011;3362;50.892;10.692;2023-05-16T14:36:19;1.70;;;0.85;;
6651;SDS011;3362;50.892;10.692;2023-05-16T14:38:45;1.55;;;0.70;;
6651;SDS011;3362;50.892;10.692;2023-05-16T14:41:13;19.02;;;0.95;;
6651;SDS011;3362;50.892;10.692;2023-05-16T14:43:39;2.33;;;0.60;;
6651;SDS011;3362;50.892;10.692;2023-05-16T14:46:05;3.13;;;0.60;;
6651;SDS011;3362;50.892;10.692;2023-05-16T14:48:31;3.38;;;1.48;;
6651;SDS011;3362;50.892;10.692;2023-05-16T14:50:59;4.03;;;1.45;;
6651;SDS011;3362;50.892;10.692;2023-05-16T14:53:25;1.92;;;0.90;;
6651;SDS011;3362;50.892;10.692;2023-05-16T14:55:51;1.10;;;0.68;;